createdAt,value
2018-08-31T00:01:20.351Z,4.47
2018-08-31T00:04:56.346Z,4.60
2018-08-31T00:07:41.356Z,4.92
2018-08-31T00:12:48.203Z,4.95
2018-08-31T00:15:15.749Z,4.50
2018-08-31T00:17:44.023Z,5.00
2018-08-31T00:20:12.666Z,4.55
2018-08-31T00:22:40.220Z,4.67
2018-08-31T00:25:19.652Z,4.67
2018-08-31T00:27:58.535Z,4.35
2018-08-31T00:32:44.607Z,4.37
2018-08-31T00:37:39.306Z,4.85
2018-08-31T00:42:20.600Z,4.90
2018-08-31T00:45:36.232Z,4.70
2018-08-31T00:48:04.281Z,4.30
2018-08-31T00:50:32.223Z,4.30
2018-08-31T00:53:00.124Z,4.60
2018-08-31T00:55:27.842Z,4.45
2018-08-31T00:57:55.379Z,4.30
2018-08-31T01:00:22.836Z,4.10
2018-08-31T01:02:50.336Z,4.20
2018-08-31T01:05:18.362Z,4.15
2018-08-31T01:07:46.292Z,4.55
2018-08-31T01:10:13.971Z,4.12
2018-08-31T01:12:41.568Z,4.08
2018-08-31T01:15:10.337Z,4.20
2018-08-31T01:17:38.018Z,4.00
2018-08-31T01:20:06.351Z,4.10
2018-08-31T01:22:33.751Z,4.08
2018-08-31T01:25:01.216Z,4.20
2018-08-31T01:27:28.635Z,4.00
2018-08-31T01:29:56.181Z,3.72
2018-08-31T01:32:23.632Z,3.70
2018-08-31T01:34:51.053Z,3.72
2018-08-31T01:37:18.561Z,3.55
2018-08-31T01:39:46.174Z,3.47
2018-08-31T01:42:24.303Z,3.10
2018-08-31T01:44:51.981Z,3.15
2018-08-31T01:47:19.404Z,3.50
2018-08-31T01:49:48.075Z,2.83
2018-08-31T01:52:15.621Z,3.35
2018-08-31T01:54:43.039Z,3.10
2018-08-31T01:57:10.640Z,3.62
2018-08-31T01:59:38.234Z,3.23
2018-08-31T02:02:05.713Z,3.45
2018-08-31T02:04:33.233Z,3.35
2018-08-31T02:07:00.806Z,3.47
2018-08-31T02:09:28.278Z,3.30
2018-08-31T02:11:55.836Z,3.25
2018-08-31T02:14:23.330Z,3.33
2018-08-31T02:16:50.795Z,2.70
2018-08-31T02:19:18.308Z,3.10
2018-08-31T02:21:45.842Z,3.37
2018-08-31T02:24:13.351Z,3.55
2018-08-31T02:26:40.868Z,3.27
2018-08-31T02:29:08.445Z,3.20
2018-08-31T02:31:35.891Z,3.53
2018-08-31T02:34:03.341Z,3.57
2018-08-31T02:36:30.843Z,3.37
2018-08-31T02:38:58.337Z,3.20
2018-08-31T02:41:25.785Z,3.70
2018-08-31T02:43:53.314Z,3.50
2018-08-31T02:46:22.008Z,3.45
2018-08-31T02:48:50.416Z,3.22
2018-08-31T02:51:17.945Z,3.35
2018-08-31T02:53:45.492Z,4.08
2018-08-31T02:56:13.506Z,3.80
2018-08-31T02:58:41.389Z,3.90
2018-08-31T03:01:09.049Z,3.90
2018-08-31T03:03:36.793Z,3.52
2018-08-31T03:06:04.526Z,3.40
2018-08-31T03:08:32.036Z,3.30
2018-08-31T03:10:59.863Z,3.50
2018-08-31T03:13:27.425Z,3.93
2018-08-31T03:15:54.998Z,3.90
2018-08-31T03:18:22.504Z,3.90
2018-08-31T03:20:50.048Z,3.87
2018-08-31T03:23:17.608Z,3.80
2018-08-31T03:25:44.989Z,3.72
2018-08-31T03:28:12.411Z,3.90
2018-08-31T03:30:39.872Z,4.10
2018-08-31T03:33:07.546Z,4.28
2018-08-31T03:35:35.017Z,3.85
2018-08-31T03:38:02.472Z,3.92
2018-08-31T03:40:29.943Z,3.92
2018-08-31T03:42:57.310Z,4.10
2018-08-31T03:45:24.758Z,4.28
2018-08-31T03:47:52.247Z,4.05
2018-08-31T03:50:19.778Z,3.70
2018-08-31T03:52:47.214Z,3.70
2018-08-31T03:55:14.811Z,3.92
2018-08-31T03:57:42.373Z,3.67
2018-08-31T04:00:10.568Z,3.42
2018-08-31T04:02:38.152Z,3.72
2018-08-31T04:05:05.919Z,3.15
2018-08-31T04:07:33.364Z,2.95
2018-08-31T04:10:00.909Z,3.45
2018-08-31T04:12:28.388Z,3.15
2018-08-31T04:14:55.819Z,3.12
2018-08-31T04:17:23.393Z,3.45
2018-08-31T04:19:50.847Z,3.10
2018-08-31T04:22:20.276Z,3.27
2018-08-31T04:24:47.736Z,3.17
2018-08-31T04:27:15.137Z,3.20
2018-08-31T04:29:42.570Z,3.20
2018-08-31T04:32:09.992Z,3.27
2018-08-31T04:34:44.996Z,3.23
2018-08-31T04:37:24.457Z,3.40
2018-08-31T04:42:25.682Z,3.30
2018-08-31T04:44:57.246Z,3.65
2018-08-31T04:47:25.007Z,3.50
2018-08-31T04:49:52.485Z,3.65
2018-08-31T04:52:20.212Z,3.60
2018-08-31T04:54:48.227Z,3.90
2018-08-31T04:57:15.834Z,3.90
2018-08-31T04:59:43.347Z,3.50
2018-08-31T05:02:10.814Z,3.85
2018-08-31T05:04:38.312Z,3.95
2018-08-31T05:07:05.847Z,3.80
2018-08-31T05:09:37.315Z,3.80
2018-08-31T05:12:05.114Z,3.30
2018-08-31T05:14:32.669Z,3.67
2018-08-31T05:17:00.168Z,4.00
2018-08-31T05:19:27.598Z,3.93
2018-08-31T05:21:54.973Z,3.83
2018-08-31T05:24:22.629Z,3.77
2018-08-31T05:26:50.059Z,4.08
2018-08-31T05:29:17.688Z,3.98
2018-08-31T05:31:45.090Z,4.28
2018-08-31T05:34:12.860Z,4.53
2018-08-31T05:36:40.336Z,3.95
2018-08-31T05:39:09.898Z,4.20
2018-08-31T05:41:37.397Z,4.50
2018-08-31T05:46:39.327Z,4.20
2018-08-31T05:49:08.037Z,4.20
2018-08-31T05:51:35.479Z,4.37
2018-08-31T05:54:03.051Z,4.30
2018-08-31T05:56:30.476Z,4.33
2018-08-31T05:58:57.918Z,4.28
2018-08-31T06:01:25.655Z,4.17
2018-08-31T06:03:53.880Z,4.22
2018-08-31T06:06:21.337Z,4.37
2018-08-31T06:08:49.122Z,4.45
2018-08-31T06:11:16.670Z,4.90
2018-08-31T06:13:44.236Z,5.00
2018-08-31T06:16:13.117Z,4.20
2018-08-31T06:18:40.616Z,4.15
2018-08-31T06:21:08.142Z,4.08
2018-08-31T06:23:35.686Z,4.70
2018-08-31T06:26:03.228Z,4.37
2018-08-31T06:28:30.764Z,4.60
2018-08-31T06:30:58.197Z,4.15
2018-08-31T06:33:25.687Z,4.37
2018-08-31T06:35:53.201Z,4.03
2018-08-31T06:38:20.622Z,4.42
2018-08-31T06:40:48.117Z,4.97
2018-08-31T06:43:19.417Z,4.75
2018-08-31T06:45:47.652Z,4.70
2018-08-31T06:48:15.225Z,4.62
2018-08-31T06:50:42.744Z,4.58
2018-08-31T06:53:10.329Z,4.92
2018-08-31T06:55:39.617Z,4.90
2018-08-31T06:58:07.114Z,4.72
2018-08-31T07:03:27.982Z,4.80
2018-08-31T07:05:55.546Z,4.60
2018-08-31T07:08:29.428Z,4.53
2018-08-31T07:13:58.368Z,4.75
2018-08-31T07:16:29.459Z,4.33
2018-08-31T07:19:17.492Z,4.53
2018-08-31T07:21:50.243Z,4.83
2018-08-31T07:24:20.400Z,4.95
2018-08-31T07:26:48.323Z,4.70
2018-08-31T07:29:18.978Z,5.12
2018-08-31T07:37:42.885Z,5.60
2018-08-31T07:40:10.817Z,4.90
2018-08-31T07:42:58.465Z,4.97
2018-08-31T07:45:25.929Z,4.85
2018-08-31T07:47:53.680Z,4.78
2018-08-31T07:50:21.004Z,5.25
2018-08-31T07:52:54.413Z,5.20
2018-08-31T07:55:21.876Z,5.37
2018-08-31T08:00:45.707Z,5.60
2018-08-31T08:03:13.155Z,5.50
2018-08-31T08:05:40.827Z,5.33
2018-08-31T08:08:08.164Z,5.20
2018-08-31T08:10:35.710Z,5.28
2018-08-31T08:13:03.190Z,5.42
2018-08-31T08:15:30.614Z,5.22
2018-08-31T08:17:58.061Z,5.10
2018-08-31T08:20:25.615Z,5.60
2018-08-31T08:22:53.283Z,5.50
2018-08-31T08:25:21.074Z,5.30
2018-08-31T08:27:48.727Z,4.92
2018-08-31T08:30:16.778Z,5.40
2018-08-31T08:32:44.259Z,4.70
2018-08-31T08:35:11.775Z,4.85
2018-08-31T08:37:39.113Z,5.25
2018-08-31T08:40:06.727Z,4.28
2018-08-31T08:42:34.223Z,4.60
2018-08-31T08:45:01.711Z,4.75
2018-08-31T08:47:29.361Z,4.97
2018-08-31T08:49:56.782Z,4.78
2018-08-31T08:52:24.469Z,5.10
2018-08-31T08:54:51.915Z,4.50
2018-08-31T08:57:19.353Z,5.00
2018-08-31T08:59:46.764Z,5.33
2018-08-31T09:02:14.163Z,5.35
2018-08-31T09:04:41.704Z,5.00
2018-08-31T09:07:11.155Z,5.35
2018-08-31T09:09:39.768Z,5.00
2018-08-31T09:12:07.353Z,5.12
2018-08-31T09:14:34.815Z,5.20
2018-08-31T09:17:02.398Z,6.08
2018-08-31T09:19:29.908Z,7.42
2018-08-31T09:21:57.459Z,5.58
2018-08-31T09:24:24.912Z,7.10
2018-08-31T09:26:52.402Z,5.37
2018-08-31T09:29:19.993Z,5.30
2018-08-31T09:31:47.794Z,5.65
2018-08-31T09:34:15.289Z,5.35
2018-08-31T09:36:43.568Z,5.75
2018-08-31T09:39:11.884Z,5.62
2018-08-31T09:41:39.328Z,7.12
2018-08-31T09:44:06.827Z,5.47
2018-08-31T09:46:34.232Z,5.42
2018-08-31T09:49:02.056Z,5.65
2018-08-31T09:51:29.522Z,5.53
2018-08-31T09:53:56.992Z,5.10
2018-08-31T09:56:24.519Z,5.10
2018-08-31T09:58:52.021Z,5.30
2018-08-31T10:01:25.176Z,5.17
2018-08-31T10:03:52.668Z,5.35
2018-08-31T10:06:20.099Z,5.35
2018-08-31T10:08:47.823Z,4.92
2018-08-31T10:11:15.280Z,4.85
2018-08-31T10:13:42.741Z,25.88
2018-08-31T10:16:10.310Z,9.13
2018-08-31T10:18:37.773Z,6.10
2018-08-31T10:21:06.090Z,5.17
2018-08-31T10:23:33.607Z,5.53
2018-08-31T10:26:01.073Z,7.83
2018-08-31T10:28:28.708Z,9.75
2018-08-31T10:30:56.219Z,13.83
2018-08-31T10:33:24.116Z,5.85
2018-08-31T10:35:51.545Z,5.70
2018-08-31T10:38:19.383Z,5.45
2018-08-31T10:40:46.852Z,5.47
2018-08-31T10:43:14.465Z,5.15
2018-08-31T10:45:42.018Z,5.80
2018-08-31T10:48:09.598Z,5.62
2018-08-31T10:50:36.975Z,5.67
2018-08-31T10:53:04.482Z,5.20
2018-08-31T10:55:32.758Z,4.53
2018-08-31T10:58:00.155Z,5.72
2018-08-31T11:00:27.594Z,5.53
2018-08-31T11:02:55.111Z,5.60
2018-08-31T11:05:22.566Z,6.57
2018-08-31T11:07:49.995Z,7.27
2018-08-31T11:10:17.457Z,7.72
2018-08-31T11:12:44.948Z,13.90
2018-08-31T11:15:12.398Z,6.40
2018-08-31T11:17:39.720Z,6.00
2018-08-31T11:20:07.221Z,6.15
2018-08-31T11:22:34.704Z,6.07
2018-08-31T11:25:02.345Z,5.47
2018-08-31T11:27:29.873Z,5.30
2018-08-31T11:29:57.572Z,5.33
2018-08-31T11:32:25.335Z,5.62
2018-08-31T11:34:52.791Z,5.80
2018-08-31T11:37:20.234Z,5.75
2018-08-31T11:39:47.781Z,6.87
2018-08-31T11:42:15.164Z,6.40
2018-08-31T11:44:42.629Z,6.08
2018-08-31T11:47:10.044Z,6.35
2018-08-31T11:49:37.455Z,5.90
2018-08-31T11:52:04.923Z,5.70
2018-08-31T11:54:32.354Z,6.12
2018-08-31T11:56:59.785Z,5.87
2018-08-31T11:59:27.348Z,7.55
2018-08-31T12:01:54.838Z,6.30
2018-08-31T12:04:22.268Z,6.15
2018-08-31T12:06:49.919Z,10.55
2018-08-31T12:09:17.406Z,7.08
2018-08-31T12:11:44.900Z,6.70
2018-08-31T12:14:12.366Z,5.80
2018-08-31T12:16:39.757Z,5.90
2018-08-31T12:19:07.212Z,5.90
2018-08-31T12:21:34.648Z,5.92
2018-08-31T12:24:02.152Z,7.75
2018-08-31T12:26:29.673Z,6.70
2018-08-31T12:28:57.080Z,6.07
2018-08-31T12:31:24.559Z,5.90
2018-08-31T12:33:51.897Z,6.85
2018-08-31T12:36:19.371Z,6.53
2018-08-31T12:38:46.805Z,6.25
2018-08-31T12:41:14.247Z,6.25
2018-08-31T12:43:41.861Z,5.78
2018-08-31T12:46:09.255Z,5.92
2018-08-31T12:48:36.650Z,5.80
2018-08-31T12:51:04.065Z,5.87
2018-08-31T12:53:31.443Z,6.85
2018-08-31T12:55:58.965Z,5.70
2018-08-31T12:58:26.431Z,5.40
2018-08-31T13:00:53.757Z,5.83
2018-08-31T13:03:21.208Z,5.58
2018-08-31T13:05:48.748Z,5.95
2018-08-31T13:08:16.290Z,5.58
2018-08-31T13:10:43.670Z,5.97
2018-08-31T13:13:11.148Z,5.67
2018-08-31T13:15:38.561Z,5.85
2018-08-31T13:18:05.925Z,6.10
2018-08-31T13:20:33.493Z,5.92
2018-08-31T13:23:01.047Z,5.42
2018-08-31T13:25:28.417Z,5.60
2018-08-31T13:27:55.889Z,5.70
2018-08-31T13:30:23.432Z,6.03
2018-08-31T13:32:50.949Z,6.00
2018-08-31T13:35:18.381Z,6.33
2018-08-31T13:37:45.968Z,6.17
2018-08-31T13:40:13.417Z,6.20
2018-08-31T13:42:40.913Z,5.92
2018-08-31T13:45:08.338Z,6.45
2018-08-31T13:47:35.790Z,5.95
2018-08-31T13:50:03.349Z,6.17
2018-08-31T13:52:30.911Z,6.10
2018-08-31T13:54:58.402Z,6.37
2018-08-31T13:57:25.841Z,6.30
2018-08-31T13:59:53.384Z,5.97
2018-08-31T14:02:20.791Z,6.20
2018-08-31T14:04:48.232Z,6.08
2018-08-31T14:07:15.757Z,5.87
2018-08-31T14:09:43.271Z,6.22
2018-08-31T14:12:10.811Z,5.90
2018-08-31T14:14:38.356Z,6.47
2018-08-31T14:17:05.915Z,6.53
2018-08-31T14:19:33.345Z,6.07
2018-08-31T14:22:00.798Z,6.00
2018-08-31T14:24:28.339Z,5.87
2018-08-31T14:26:55.830Z,5.92
2018-08-31T14:29:23.292Z,6.30
2018-08-31T14:31:50.772Z,5.90
2018-08-31T14:34:18.292Z,5.60
2018-08-31T14:36:45.709Z,5.83
2018-08-31T14:39:13.354Z,5.80
2018-08-31T14:41:40.904Z,6.03
2018-08-31T14:44:08.712Z,5.97
2018-08-31T14:46:36.284Z,5.80
2018-08-31T14:49:04.231Z,5.65
2018-08-31T14:51:31.681Z,5.10
2018-08-31T14:53:59.109Z,5.47
2018-08-31T14:56:26.617Z,5.40
2018-08-31T14:58:54.033Z,5.10
2018-08-31T15:01:21.416Z,5.00
2018-08-31T15:03:48.871Z,5.10
2018-08-31T15:06:16.316Z,4.90
2018-08-31T15:08:43.902Z,5.42
2018-08-31T15:11:12.113Z,5.03
2018-08-31T15:13:39.680Z,4.90
2018-08-31T15:16:07.096Z,4.78
2018-08-31T15:18:39.693Z,5.00
2018-08-31T15:21:07.162Z,4.85
2018-08-31T15:23:34.760Z,5.42
2018-08-31T15:26:02.213Z,5.00
2018-08-31T15:28:29.737Z,5.07
2018-08-31T15:30:57.343Z,4.80
2018-08-31T15:33:24.886Z,4.85
2018-08-31T15:35:52.409Z,4.53
2018-08-31T15:38:19.956Z,4.87
2018-08-31T15:40:47.537Z,5.15
2018-08-31T15:43:15.097Z,5.20
2018-08-31T15:45:42.578Z,5.60
2018-08-31T15:48:10.092Z,6.00
2018-08-31T15:50:37.774Z,6.40
2018-08-31T15:53:05.288Z,6.55
2018-08-31T15:55:32.746Z,6.65
2018-08-31T15:58:00.268Z,6.87
2018-08-31T16:00:27.774Z,6.80
2018-08-31T16:02:55.269Z,6.60
2018-08-31T16:05:22.784Z,7.43
2018-08-31T16:07:50.335Z,6.85
2018-08-31T16:10:17.789Z,7.33
2018-08-31T16:12:45.179Z,7.08
2018-08-31T16:15:12.681Z,6.75
2018-08-31T16:17:40.220Z,7.25
2018-08-31T16:20:07.831Z,7.37
2018-08-31T16:22:35.238Z,7.53
2018-08-31T16:25:02.752Z,7.78
2018-08-31T16:27:30.295Z,7.80
2018-08-31T16:29:57.774Z,7.80
2018-08-31T16:32:26.437Z,7.12
2018-08-31T16:34:53.940Z,7.30
2018-08-31T16:37:21.388Z,7.08
2018-08-31T16:39:48.765Z,7.72
2018-08-31T16:42:16.328Z,8.00
2018-08-31T16:44:43.731Z,8.43
2018-08-31T16:47:11.203Z,7.97
2018-08-31T16:49:38.656Z,7.62
2018-08-31T16:52:06.175Z,7.75
2018-08-31T16:54:33.677Z,8.03
2018-08-31T16:57:01.220Z,8.00
2018-08-31T16:59:28.740Z,7.72
2018-08-31T17:01:56.173Z,8.03
2018-08-31T17:04:23.639Z,8.00
2018-08-31T17:06:51.137Z,8.40
2018-08-31T17:09:18.562Z,9.03
2018-08-31T17:11:46.096Z,11.15
2018-08-31T17:14:13.615Z,12.58
2018-08-31T17:16:41.124Z,10.15
2018-08-31T17:19:08.571Z,8.90
2018-08-31T17:21:36.039Z,7.67
2018-08-31T17:24:03.570Z,7.75
2018-08-31T17:26:36.639Z,7.60
2018-08-31T17:29:09.769Z,8.03
2018-08-31T17:31:42.977Z,9.28
2018-08-31T17:34:16.223Z,8.78
2018-08-31T17:36:49.362Z,8.78
2018-08-31T17:39:16.928Z,8.80
2018-08-31T17:41:44.424Z,9.63
2018-08-31T17:44:11.956Z,9.13
2018-08-31T17:46:39.594Z,9.90
2018-08-31T17:49:07.112Z,9.87
2018-08-31T17:51:34.579Z,9.40
2018-08-31T17:54:02.101Z,9.10
2018-08-31T17:56:29.664Z,11.40
2018-08-31T17:58:56.989Z,14.25
2018-08-31T18:01:24.617Z,14.00
2018-08-31T18:03:52.217Z,11.43
2018-08-31T18:06:19.739Z,9.50
2018-08-31T18:08:47.149Z,9.88
2018-08-31T18:11:14.674Z,9.25
2018-08-31T18:13:42.132Z,8.48
2018-08-31T18:16:09.620Z,9.60
2018-08-31T18:18:37.109Z,8.93
2018-08-31T18:21:04.869Z,9.30
2018-08-31T18:23:32.394Z,8.65
2018-08-31T18:26:00.019Z,8.63
2018-08-31T18:28:27.573Z,8.40
2018-08-31T18:31:05.897Z,7.83
2018-08-31T18:33:38.239Z,8.90
2018-08-31T18:36:06.372Z,8.65
2018-08-31T18:38:33.829Z,8.48
2018-08-31T18:41:06.676Z,8.48
2018-08-31T18:43:37.241Z,8.80
2018-08-31T18:46:18.271Z,8.23
2018-08-31T18:48:51.552Z,9.35
2018-08-31T18:51:19.309Z,8.80
2018-08-31T18:53:46.858Z,8.70
2018-08-31T18:56:14.400Z,8.48
2018-08-31T18:58:49.911Z,8.58
2018-08-31T19:01:17.729Z,8.90
2018-08-31T19:03:45.379Z,9.03
2018-08-31T19:06:12.915Z,9.63
2018-08-31T19:08:40.369Z,9.53
2018-08-31T19:11:08.666Z,9.58
2018-08-31T19:16:37.683Z,9.50
2018-08-31T19:19:05.191Z,9.90
2018-08-31T19:21:32.667Z,10.30
2018-08-31T19:24:00.093Z,9.60
2018-08-31T19:26:28.013Z,10.72
2018-08-31T19:34:51.026Z,9.65
2018-08-31T19:37:18.646Z,9.25
2018-08-31T19:40:04.253Z,9.20
2018-08-31T19:42:32.586Z,10.32
2018-08-31T19:45:00.304Z,9.43
2018-08-31T19:47:27.850Z,9.58
2018-08-31T19:50:18.707Z,10.20
2018-08-31T19:55:49.102Z,10.63
2018-08-31T20:04:59.780Z,11.05
2018-08-31T20:07:27.337Z,10.40
2018-08-31T20:10:14.218Z,10.55
2018-08-31T20:13:04.236Z,11.12
2018-08-31T20:15:32.098Z,11.48
2018-08-31T20:18:00.241Z,10.98
2018-08-31T20:20:28.112Z,11.70
2018-08-31T20:22:55.689Z,12.20
2018-08-31T20:25:23.763Z,12.10
2018-08-31T20:27:51.309Z,12.18
2018-08-31T20:30:18.835Z,12.18
2018-08-31T20:32:46.521Z,12.73
2018-08-31T20:35:14.359Z,13.05
2018-08-31T20:37:41.900Z,13.18
2018-08-31T20:40:10.805Z,12.98
2018-08-31T20:42:46.073Z,13.20
2018-08-31T20:45:13.550Z,13.08
2018-08-31T20:47:41.087Z,13.88
2018-08-31T20:50:25.080Z,13.20
2018-08-31T20:52:52.591Z,13.65
2018-08-31T21:01:06.939Z,13.35
2018-08-31T21:03:48.730Z,12.90
2018-08-31T21:06:17.031Z,13.60
2018-08-31T21:08:44.567Z,13.43
2018-08-31T21:11:12.152Z,12.70
2018-08-31T21:13:39.640Z,13.48
2018-08-31T21:18:43.432Z,13.78
2018-08-31T21:24:07.156Z,13.10
2018-08-31T21:26:34.652Z,13.68
2018-08-31T21:29:02.239Z,13.03
2018-08-31T21:31:30.154Z,13.85
2018-08-31T21:33:57.593Z,13.83
2018-08-31T21:36:25.456Z,13.85
2018-08-31T21:38:53.879Z,37.00
2018-08-31T21:41:21.493Z,16.62
2018-08-31T21:43:49.001Z,13.85
2018-08-31T21:46:16.598Z,13.83
2018-08-31T21:48:44.095Z,13.32
2018-08-31T21:51:12.228Z,13.93
2018-08-31T21:53:39.734Z,13.45
2018-08-31T21:56:07.200Z,14.33
2018-08-31T21:58:34.787Z,13.48
2018-08-31T22:01:07.985Z,13.95
2018-08-31T22:03:35.422Z,14.33
2018-08-31T22:06:03.084Z,13.70
2018-08-31T22:08:30.566Z,13.40
2018-08-31T22:10:58.126Z,14.07
2018-08-31T22:13:25.637Z,14.60
2018-08-31T22:15:53.189Z,14.70
2018-08-31T22:18:20.648Z,15.30
2018-08-31T22:20:48.160Z,14.80
2018-08-31T22:23:16.660Z,14.30
2018-08-31T22:25:44.840Z,14.43
2018-08-31T22:28:12.477Z,14.80
2018-08-31T22:30:40.046Z,14.38
2018-08-31T22:33:07.513Z,14.33
2018-08-31T22:35:35.039Z,13.65
2018-08-31T22:38:02.559Z,14.63
2018-08-31T22:40:30.117Z,15.05
2018-08-31T22:42:57.678Z,14.83
2018-08-31T22:45:26.814Z,16.87
2018-08-31T22:47:54.266Z,16.20
2018-08-31T22:50:21.952Z,15.35
2018-08-31T22:52:49.551Z,14.85
2018-08-31T22:55:17.177Z,14.90
2018-08-31T22:57:44.811Z,15.23
2018-08-31T23:00:12.354Z,16.02
2018-08-31T23:02:39.832Z,14.97
2018-08-31T23:05:07.416Z,15.58
2018-08-31T23:07:40.501Z,14.90
2018-08-31T23:10:08.030Z,14.63
2018-08-31T23:12:35.561Z,14.03
2018-08-31T23:15:03.192Z,15.15
2018-08-31T23:17:30.755Z,16.32
2018-08-31T23:19:58.889Z,16.40
2018-08-31T23:22:27.332Z,16.17
2018-08-31T23:24:58.500Z,16.80
2018-08-31T23:27:26.485Z,17.52
2018-08-31T23:29:54.124Z,17.17
2018-08-31T23:32:21.832Z,16.67
2018-08-31T23:34:49.308Z,16.95
2018-08-31T23:37:16.809Z,16.15
2018-08-31T23:39:44.374Z,16.57
2018-08-31T23:42:11.797Z,15.23
2018-08-31T23:44:39.260Z,14.95
2018-08-31T23:47:06.775Z,18.00
2018-08-31T23:49:34.272Z,17.62
2018-08-31T23:52:01.738Z,16.93
2018-08-31T23:54:29.291Z,16.00
2018-08-31T23:56:56.719Z,15.93
2018-08-31T23:59:24.264Z,15.08
